Time;durP1;ratioP1;P1;durP2;ratioP2;P2;SDS_P1;SDS_P2;PMS_P1;PMS_P2;Temp;Humidity;BMP_temperature;BMP_pressure;BME280_temperature;BME280_humidity;BME280_pressure;Samples;Min_cycle;Max_cycle;Signal;HPM_P1;HPM_P2
2023/05/20 00:00:34;;;;;;;24.17;19.90;;;;;;;;;;4976178;28;20022;-76
2023/05/20 00:03:00;;;;;;;20.30;18.10;;;;;;;;;;4977499;28;20035;-73
2023/05/20 00:05:25;;;;;;;17.65;15.85;;;;;;;;;;4967389;28;20124;-73
2023/05/20 00:07:51;;;;;;;18.75;15.75;;;;;;;;;;4975272;28;20031;-76
2023/05/20 00:10:16;;;;;;;17.77;15.93;;;;;;;;;;4967574;28;20457;-74
2023/05/20 00:12:41;;;;;;;17.05;15.38;;;;;;;;;;4970105;28;20039;-72
2023/05/20 00:15:07;;;;;;;20.15;16.45;;;;;;;;;;4975109;28;21232;-76
2023/05/20 00:17:32;;;;;;;20.83;16.48;;;;;;;;;;4973879;28;20347;-73
2023/05/20 00:19:58;;;;;;;26.23;23.40;;;;;;;;;;4971715;28;20026;-72
2023/05/20 00:22:24;;;;;;;35.83;25.55;;;;;;;;;;4977264;28;20114;-72
2023/05/20 00:24:49;;;;;;;28.55;19.48;;;;;;;;;;4976220;28;20053;-72
2023/05/20 00:27:15;;;;;;;22.67;20.00;;;;;;;;;;4975406;28;20038;-73
2023/05/20 00:29:40;;;;;;;20.95;18.70;;;;;;;;;;4975991;28;20046;-72
2023/05/20 00:32:06;;;;;;;25.23;19.75;;;;;;;;;;4975770;28;20449;-75
2023/05/20 00:34:31;;;;;;;20.75;18.35;;;;;;;;;;4971191;28;20348;-72
2023/05/20 00:36:56;;;;;;;19.30;17.50;;;;;;;;;;4973225;28;20490;-71
2023/05/20 00:39:21;;;;;;;19.63;17.52;;;;;;;;;;4974539;28;20029;-71
2023/05/20 00:41:47;;;;;;;17.63;15.93;;;;;;;;;;4973199;28;20055;-72
2023/05/20 00:44:12;;;;;;;20.38;16.95;;;;;;;;;;4975135;28;20137;-73
2023/05/20 00:46:38;;;;;;;19.25;17.25;;;;;;;;;;4973518;28;20045;-73
2023/05/20 00:49:03;;;;;;;18.95;16.95;;;;;;;;;;4972439;28;20464;-75
2023/05/20 00:51:29;;;;;;;18.25;16.08;;;;;;;;;;4974705;28;20415;-74
2023/05/20 00:53:55;;;;;;;19.60;15.75;;;;;;;;;;4974996;28;20031;-73
2023/05/20 00:56:21;;;;;;;20.45;16.05;;;;;;;;;;4973182;28;20417;-70
2023/05/20 00:58:47;;;;;;;19.90;17.50;;;;;;;;;;4977198;28;20022;-71
2023/05/20 01:01:12;;;;;;;18.75;16.77;;;;;;;;;;4975154;28;20026;-72
2023/05/20 01:03:37;;;;;;;19.70;17.63;;;;;;;;;;4971629;28;20022;-75
2023/05/20 01:06:03;;;;;;;19.80;17.80;;;;;;;;;;4960427;28;20095;-72
2023/05/20 01:08:28;;;;;;;20.33;18.23;;;;;;;;;;4974079;28;20030;-72
2023/05/20 01:10:57;;;;;;;19.95;17.30;;;;;;;;;;4972703;28;20056;-73
2023/05/20 01:13:26;;;;;;;21.60;19.35;;;;;;;;;;4975463;28;20101;-74
2023/05/20 01:15:53;;;;;;;19.63;17.60;;;;;;;;;;4973816;28;20022;-72
2023/05/20 01:18:19;;;;;;;16.77;14.93;;;;;;;;;;4973578;28;20030;-72
2023/05/20 01:20:49;;;;;;;19.75;17.80;;;;;;;;;;4976471;28;21159;-71
2023/05/20 01:23:14;;;;;;;;;;;;;;;;;;4976769;28;20071;-72
2023/05/20 01:25:41;;;;;;;16.55;14.85;;;;;;;;;;4975311;28;19910;-74
2023/05/20 01:28:06;;;;;;;18.33;15.68;;;;;;;;;;4973084;28;20034;-72
2023/05/20 01:30:34;;;;;;;20.75;18.15;;;;;;;;;;4975057;28;20357;-72
2023/05/20 01:33:08;;;;;;;20.67;18.58;;;;;;;;;;4973705;28;20033;-74
2023/05/20 01:35:34;;;;;;;20.17;17.92;;;;;;;;;;4975231;28;20030;-72
2023/05/20 01:38:00;;;;;;;19.80;17.77;;;;;;;;;;4972938;28;20338;-73
2023/05/20 01:40:26;;;;;;;17.20;15.50;;;;;;;;;;4972439;28;20065;-74
2023/05/20 01:42:53;;;;;;;18.75;16.17;;;;;;;;;;4963315;28;20050;-74
2023/05/20 01:45:19;;;;;;;17.60;15.60;;;;;;;;;;4974487;28;20045;-72
2023/05/20 01:47:45;;;;;;;18.77;16.85;;;;;;;;;;4975415;28;20354;-72
2023/05/20 01:50:10;;;;;;;18.80;16.50;;;;;;;;;;4974410;28;20360;-72
2023/05/20 01:52:35;;;;;;;17.45;15.25;;;;;;;;;;4971618;28;20418;-73
2023/05/20 01:55:01;;;;;;;23.83;21.02;;;;;;;;;;4972574;28;20404;-73
2023/05/20 01:57:26;;;;;;;18.77;16.77;;;;;;;;;;4972771;28;20134;-72
2023/05/20 01:59:51;;;;;;;16.73;15.00;;;;;;;;;;4968583;28;20364;-74
2023/05/20 02:02:17;;;;;;;24.67;15.93;;;;;;;;;;4969451;28;20038;-73
2023/05/20 02:04:46;;;;;;;17.75;15.60;;;;;;;;;;4974071;28;20029;-72
2023/05/20 02:07:12;;;;;;;17.55;15.75;;;;;;;;;;4975425;28;20034;-73
2023/05/20 02:09:37;;;;;;;17.13;15.43;;;;;;;;;;4975670;28;20121;-76
2023/05/20 02:12:03;;;;;;;18.23;15.05;;;;;;;;;;4970714;28;20720;-75
2023/05/20 02:14:28;;;;;;;17.73;14.70;;;;;;;;;;4974234;28;20068;-74
2023/05/20 02:16:54;;;;;;;16.35;14.68;;;;;;;;;;4971372;28;20087;-77
2023/05/20 02:19:22;;;;;;;16.88;14.40;;;;;;;;;;4973551;28;20027;-74
2023/05/20 02:21:47;;;;;;;16.30;14.63;;;;;;;;;;4975173;28;21172;-74
2023/05/20 02:24:13;;;;;;;18.10;14.50;;;;;;;;;;4973384;28;20023;-74
2023/05/20 02:26:38;;;;;;;14.07;12.77;;;;;;;;;;4972612;28;20035;-74
2023/05/20 02:29:04;;;;;;;16.15;14.55;;;;;;;;;;4973151;28;20074;-74
2023/05/20 02:31:29;;;;;;;14.35;12.85;;;;;;;;;;4969730;28;20349;-74
2023/05/20 02:33:54;;;;;;;16.35;13.10;;;;;;;;;;4973031;28;20038;-76
2023/05/20 02:36:20;;;;;;;13.60;12.20;;;;;;;;;;4973229;28;20031;-73
2023/05/20 02:38:45;;;;;;;16.35;14.63;;;;;;;;;;4974796;28;20029;-73
2023/05/20 02:41:10;;;;;;;14.98;13.48;;;;;;;;;;4973157;28;20145;-74
2023/05/20 02:43:36;;;;;;;14.90;13.25;;;;;;;;;;4974185;28;20471;-75
2023/05/20 02:46:01;;;;;;;18.95;13.60;;;;;;;;;;4971274;28;20031;-74
2023/05/20 02:48:27;;;;;;;13.90;12.50;;;;;;;;;;4972084;28;20046;-75
2023/05/20 02:50:53;;;;;;;15.43;12.57;;;;;;;;;;4972911;28;20047;-73
2023/05/20 02:53:19;;;;;;;13.57;12.23;;;;;;;;;;4972139;28;20092;-74
2023/05/20 02:55:46;;;;;;;14.63;13.10;;;;;;;;;;4973351;28;20112;-75
2023/05/20 02:58:12;;;;;;;16.08;14.45;;;;;;;;;;4974415;28;20073;-74
2023/05/20 03:00:39;;;;;;;15.82;14.20;;;;;;;;;;4972363;28;21028;-74
2023/05/20 03:03:05;;;;;;;15.32;13.70;;;;;;;;;;4973068;28;20038;-74
2023/05/20 03:05:31;;;;;;;17.40;14.38;;;;;;;;;;4971253;28;20028;-76
2023/05/20 03:07:56;;;;;;;16.00;14.30;;;;;;;;;;4974848;28;20125;-75
2023/05/20 03:10:22;;;;;;;16.25;13.50;;;;;;;;;;4973118;28;20512;-77
2023/05/20 03:12:47;;;;;;;17.27;13.38;;;;;;;;;;4973038;28;20080;-75
2023/05/20 03:15:13;;;;;;;19.85;13.38;;;;;;;;;;4972523;28;20087;-74
2023/05/20 03:17:38;;;;;;;19.80;12.70;;;;;;;;;;4973940;28;20054;-75
2023/05/20 03:20:04;;;;;;;15.95;12.20;;;;;;;;;;4972891;28;20038;-74
2023/05/20 03:22:29;;;;;;;14.05;12.55;;;;;;;;;;4972532;28;20026;-76
2023/05/20 03:24:55;;;;;;;17.92;12.30;;;;;;;;;;4971591;28;20029;-76
2023/05/20 03:27:21;;;;;;;16.73;12.30;;;;;;;;;;4973604;28;20048;-75
2023/05/20 03:29:47;;;;;;;15.30;12.35;;;;;;;;;;4973288;28;20109;-75
2023/05/20 03:32:12;;;;;;;24.85;13.48;;;;;;;;;;4970286;28;20027;-73
2023/05/20 03:34:37;;;;;;;14.15;11.82;;;;;;;;;;4968893;28;20034;-74
2023/05/20 03:37:03;;;;;;;14.32;12.70;;;;;;;;;;4959290;28;20433;-73
2023/05/20 03:39:28;;;;;;;16.10;13.77;;;;;;;;;;4960800;28;20022;-73
2023/05/20 03:41:53;;;;;;;18.35;13.55;;;;;;;;;;4959489;28;20051;-75
2023/05/20 03:44:19;;;;;;;26.08;13.75;;;;;;;;;;4960686;28;20034;-73
2023/05/20 03:46:44;;;;;;;22.48;13.07;;;;;;;;;;4958007;28;20038;-74
2023/05/20 03:49:10;;;;;;;15.05;13.50;;;;;;;;;;4968629;28;20084;-75
2023/05/20 03:51:35;;;;;;;16.92;13.73;;;;;;;;;;4962037;28;20145;-74
2023/05/20 03:54:00;;;;;;;19.67;14.65;;;;;;;;;;4971196;28;20037;-74
2023/05/20 03:56:26;;;;;;;27.67;20.48;;;;;;;;;;4960001;28;20030;-72
2023/05/20 03:58:51;;;;;;;21.88;18.92;;;;;;;;;;4973035;28;20037;-71
2023/05/20 04:01:16;;;;;;;23.83;19.00;;;;;;;;;;4973769;28;20037;-72
2023/05/20 04:03:42;;;;;;;18.10;16.20;;;;;;;;;;4972194;28;20071;-72
2023/05/20 04:06:07;;;;;;;16.77;15.05;;;;;;;;;;4977341;28;20035;-76
2023/05/20 04:08:35;;;;;;;22.80;19.15;;;;;;;;;;4972618;28;20019;-73
2023/05/20 04:11:01;;;;;;;20.83;17.58;;;;;;;;;;4971655;28;20022;-71
2023/05/20 04:13:26;;;;;;;17.15;15.35;;;;;;;;;;4973858;28;20041;-73
2023/05/20 04:15:51;;;;;;;19.73;16.85;;;;;;;;;;4970578;28;20030;-72
2023/05/20 04:18:17;;;;;;;22.52;20.10;;;;;;;;;;4972443;28;20034;-71
2023/05/20 04:20:42;;;;;;;18.92;17.02;;;;;;;;;;4974278;28;20026;-76
2023/05/20 04:23:08;;;;;;;17.27;14.35;;;;;;;;;;4972796;28;20442;-73
2023/05/20 04:25:34;;;;;;;23.33;12.73;;;;;;;;;;4974718;28;20079;-71
2023/05/20 04:28:00;;;;;;;19.10;13.52;;;;;;;;;;4976867;28;20099;-72
2023/05/20 04:30:25;;;;;;;18.70;12.43;;;;;;;;;;4989977;28;20031;-72
2023/05/20 04:32:51;;;;;;;14.75;13.23;;;;;;;;;;4973324;28;20018;-71
2023/05/20 04:35:16;;;;;;;15.75;13.75;;;;;;;;;;4974998;28;20045;-72
2023/05/20 04:37:43;;;;;;;23.17;16.92;;;;;;;;;;4974256;28;20163;-71
2023/05/20 04:40:09;;;;;;;24.30;15.63;;;;;;;;;;4973357;28;20035;-75
2023/05/20 04:42:34;;;;;;;25.38;14.90;;;;;;;;;;4973637;28;20047;-75
2023/05/20 04:45:00;;;;;;;22.00;13.77;;;;;;;;;;4974861;28;20501;-71
2023/05/20 04:47:29;;;;;;;18.42;14.15;;;;;;;;;;4975485;28;20037;-71
2023/05/20 04:49:57;;;;;;;14.00;12.55;;;;;;;;;;4975300;28;20033;-74
2023/05/20 04:52:23;;;;;;;17.73;13.13;;;;;;;;;;4972815;28;20094;-71
2023/05/20 04:54:49;;;;;;;14.05;12.52;;;;;;;;;;4973263;28;20095;-75
2023/05/20 04:57:16;;;;;;;14.82;13.05;;;;;;;;;;4974552;28;20030;-72
2023/05/20 04:59:41;;;;;;;16.02;14.32;;;;;;;;;;4972992;28;20039;-74
2023/05/20 05:02:06;;;;;;;15.45;13.85;;;;;;;;;;4973820;28;20026;-72
2023/05/20 05:04:32;;;;;;;17.10;14.23;;;;;;;;;;4975412;28;20033;-72
2023/05/20 05:06:57;;;;;;;15.85;14.23;;;;;;;;;;4975538;28;20457;-71
2023/05/20 05:09:22;;;;;;;25.02;14.45;;;;;;;;;;4973293;28;20030;-75
2023/05/20 05:11:48;;;;;;;16.15;13.50;;;;;;;;;;4974002;28;20124;-71
2023/05/20 05:14:13;;;;;;;15.45;14.02;;;;;;;;;;4972411;28;20036;-75
2023/05/20 05:16:39;;;;;;;15.13;13.63;;;;;;;;;;4974752;28;20493;-73
2023/05/20 05:19:06;;;;;;;17.25;13.68;;;;;;;;;;4962413;28;20026;-71
2023/05/20 05:21:31;;;;;;;16.52;14.02;;;;;;;;;;4961257;28;20042;-71
2023/05/20 05:23:57;;;;;;;16.90;14.93;;;;;;;;;;4970651;28;20034;-75
2023/05/20 05:26:22;;;;;;;18.35;15.48;;;;;;;;;;4973388;28;20058;-70
2023/05/20 05:28:47;;;;;;;16.42;14.88;;;;;;;;;;4972422;28;20449;-76
2023/05/20 05:31:13;;;;;;;20.95;17.20;;;;;;;;;;4975660;28;20019;-72
2023/05/20 05:33:38;;;;;;;20.27;18.20;;;;;;;;;;4973515;28;20038;-71
2023/05/20 05:36:05;;;;;;;22.73;20.52;;;;;;;;;;4973793;28;20053;-74
2023/05/20 05:38:30;;;;;;;24.63;22.02;;;;;;;;;;4975000;28;20023;-72
2023/05/20 05:40:56;;;;;;;21.77;19.58;;;;;;;;;;4973812;28;20520;-71
2023/05/20 05:43:21;;;;;;;19.77;17.85;;;;;;;;;;4974878;28;20054;-71
2023/05/20 05:45:46;;;;;;;19.30;17.38;;;;;;;;;;4974716;28;20117;-70
2023/05/20 05:48:12;;;;;;;19.83;17.92;;;;;;;;;;4972169;28;20095;-75
2023/05/20 05:50:37;;;;;;;19.23;17.23;;;;;;;;;;4972936;28;20362;-72
2023/05/20 05:53:02;;;;;;;15.80;14.15;;;;;;;;;;4974468;28;20030;-74
2023/05/20 05:55:28;;;;;;;21.83;15.48;;;;;;;;;;4974623;28;20122;-71
2023/05/20 05:57:53;;;;;;;16.95;15.25;;;;;;;;;;4974422;28;20041;-76
2023/05/20 06:00:19;;;;;;;17.38;15.55;;;;;;;;;;4974783;28;20504;-71
2023/05/20 06:02:45;;;;;;;17.05;15.35;;;;;;;;;;4975598;28;20076;-71
2023/05/20 06:05:11;;;;;;;19.10;17.10;;;;;;;;;;4974079;28;20038;-72
2023/05/20 06:07:36;;;;;;;17.92;16.13;;;;;;;;;;4973444;28;20041;-71
2023/05/20 06:10:01;;;;;;;16.17;14.48;;;;;;;;;;4973450;28;20030;-74
2023/05/20 06:12:27;;;;;;;16.83;14.45;;;;;;;;;;4974476;28;20067;-73
2023/05/20 06:14:52;;;;;;;16.73;14.35;;;;;;;;;;4975379;28;20022;-70
2023/05/20 06:17:17;;;;;;;15.50;14.07;;;;;;;;;;4975093;28;20057;-75
2023/05/20 06:19:43;;;;;;;15.90;14.38;;;;;;;;;;4973904;28;20449;-72
2023/05/20 06:22:08;;;;;;;16.60;13.85;;;;;;;;;;4972480;28;20360;-71
2023/05/20 06:24:33;;;;;;;15.65;14.00;;;;;;;;;;4972805;28;20105;-71
2023/05/20 06:26:59;;;;;;;16.50;14.70;;;;;;;;;;4974121;28;20364;-74
2023/05/20 06:29:24;;;;;;;14.93;13.32;;;;;;;;;;4971944;28;20042;-73
2023/05/20 06:31:50;;;;;;;16.65;14.55;;;;;;;;;;4969100;28;20031;-72
2023/05/20 06:34:15;;;;;;;14.05;12.57;;;;;;;;;;4973846;28;20087;-72
2023/05/20 06:36:40;;;;;;;13.70;12.38;;;;;;;;;;4973309;28;20022;-73
2023/05/20 06:39:11;;;;;;;14.80;13.32;;;;;;;;;;4973109;28;20042;-72
2023/05/20 06:41:36;;;;;;;16.88;13.93;;;;;;;;;;4973885;28;20038;-70
2023/05/20 06:44:02;;;;;;;14.50;13.10;;;;;;;;;;4972749;28;20026;-73
2023/05/20 06:46:27;;;;;;;14.75;13.07;;;;;;;;;;4972462;28;20125;-72
2023/05/20 06:48:52;;;;;;;15.40;13.10;;;;;;;;;;4974936;28;20064;-73
2023/05/20 06:51:18;;;;;;;13.82;12.43;;;;;;;;;;4972074;28;20023;-74
2023/05/20 06:53:43;;;;;;;14.30;12.80;;;;;;;;;;4970497;28;20034;-71
2023/05/20 06:56:08;;;;;;;13.82;12.40;;;;;;;;;;4974317;28;20030;-72
2023/05/20 06:58:34;;;;;;;14.98;13.48;;;;;;;;;;4972505;28;20060;-72
2023/05/20 07:00:59;;;;;;;13.73;12.30;;;;;;;;;;4967600;28;20030;-76
2023/05/20 07:03:25;;;;;;;13.40;12.05;;;;;;;;;;4958806;28;20039;-73
2023/05/20 07:05:50;;;;;;;17.13;13.30;;;;;;;;;;4958779;28;20022;-73
2023/05/20 07:08:15;;;;;;;17.08;12.50;;;;;;;;;;4959445;28;20035;-72
2023/05/20 07:10:41;;;;;;;12.63;11.32;;;;;;;;;;4959167;28;20026;-72
2023/05/20 07:13:06;;;;;;;15.50;11.18;;;;;;;;;;4960940;28;20030;-72
2023/05/20 07:15:32;;;;;;;15.73;12.13;;;;;;;;;;4960336;28;20129;-72
2023/05/20 07:17:57;;;;;;;13.63;12.32;;;;;;;;;;4962100;28;20068;-72
2023/05/20 07:20:23;;;;;;;12.75;11.45;;;;;;;;;;4969210;28;20052;-73
2023/05/20 07:22:49;;;;;;;13.60;12.25;;;;;;;;;;4973361;28;20026;-71
2023/05/20 07:25:15;;;;;;;13.00;11.70;;;;;;;;;;4973181;28;20046;-72
2023/05/20 07:27:40;;;;;;;13.32;11.77;;;;;;;;;;4970816;28;20034;-75
2023/05/20 07:30:06;;;;;;;11.43;10.23;;;;;;;;;;4970320;28;20424;-72
2023/05/20 07:32:31;;;;;;;14.40;11.38;;;;;;;;;;4969128;28;20026;-74
2023/05/20 07:34:56;;;;;;;11.77;10.57;;;;;;;;;;4972115;28;20390;-73
2023/05/20 07:37:22;;;;;;;11.45;9.90;;;;;;;;;;4972302;28;20350;-70
2023/05/20 07:39:47;;;;;;;12.15;10.93;;;;;;;;;;4971316;28;20050;-74
2023/05/20 07:42:13;;;;;;;11.75;10.55;;;;;;;;;;4972179;28;20058;-75
2023/05/20 07:44:38;;;;;;;13.60;10.50;;;;;;;;;;4973201;28;20121;-72
2023/05/20 07:47:03;;;;;;;14.43;10.68;;;;;;;;;;4973722;28;20038;-74
2023/05/20 07:49:29;;;;;;;11.15;10.00;;;;;;;;;;4971505;28;20027;-72
2023/05/20 07:51:54;;;;;;;12.52;8.77;;;;;;;;;;4973422;28;20026;-73
2023/05/20 07:54:19;;;;;;;10.02;9.02;;;;;;;;;;4973859;28;20883;-74
2023/05/20 07:56:45;;;;;;;10.38;9.38;;;;;;;;;;4974626;28;20194;-74
2023/05/20 07:59:10;;;;;;;10.35;9.05;;;;;;;;;;4975434;28;20076;-75
2023/05/20 08:01:35;;;;;;;9.18;8.30;;;;;;;;;;4976025;28;20077;-74
2023/05/20 08:04:01;;;;;;;10.40;8.40;;;;;;;;;;4977553;28;20014;-74
2023/05/20 08:06:26;;;;;;;10.35;8.90;;;;;;;;;;4977874;28;20409;-74
2023/05/20 08:08:54;;;;;;;10.25;9.23;;;;;;;;;;4970682;28;20030;-77
2023/05/20 08:11:21;;;;;;;11.75;8.90;;;;;;;;;;4969503;28;20034;-73
2023/05/20 08:13:46;;;;;;;10.43;8.73;;;;;;;;;;4977474;28;20014;-75
2023/05/20 08:16:12;;;;;;;12.73;9.23;;;;;;;;;;4975310;28;20456;-75
2023/05/20 08:18:37;;;;;;;9.40;8.50;;;;;;;;;;4990727;28;20031;-75
2023/05/20 08:21:05;;;;;;;7.82;7.03;;;;;;;;;;4976538;28;20026;-75
2023/05/20 08:23:30;;;;;;;9.57;7.10;;;;;;;;;;4974806;28;20062;-74
2023/05/20 08:25:56;;;;;;;7.93;7.18;;;;;;;;;;4976834;28;20710;-76
2023/05/20 08:28:21;;;;;;;8.20;6.50;;;;;;;;;;4974870;28;20050;-76
2023/05/20 08:30:47;;;;;;;10.30;7.45;;;;;;;;;;4971652;28;20397;-73
2023/05/20 08:33:13;;;;;;;7.45;6.03;;;;;;;;;;4962646;28;20031;-75
2023/05/20 08:35:39;;;;;;;7.88;6.97;;;;;;;;;;4962126;28;20474;-74
2023/05/20 08:38:05;;;;;;;7.03;6.35;;;;;;;;;;4966583;28;20038;-74
2023/05/20 08:40:33;;;;;;;7.28;6.50;;;;;;;;;;4974584;28;20062;-75
2023/05/20 08:43:00;;;;;;;6.38;5.60;;;;;;;;;;4977268;28;20054;-76
2023/05/20 08:45:27;;;;;;;7.15;6.32;;;;;;;;;;4977113;28;20034;-77
2023/05/20 08:47:53;;;;;;;7.15;6.13;;;;;;;;;;4974720;28;20441;-74
2023/05/20 08:50:18;;;;;;;7.03;6.22;;;;;;;;;;4975164;28;20092;-75
2023/05/20 08:52:45;;;;;;;8.55;6.10;;;;;;;;;;4972746;28;20960;-75
2023/05/20 08:55:37;;;;;;;9.70;6.40;;;;;;;;;;4974332;28;20117;-74
2023/05/20 08:58:02;;;;;;;6.90;6.07;;;;;;;;;;5009859;28;20582;-75
2023/05/20 09:00:28;;;;;;;8.68;6.00;;;;;;;;;;4974879;28;20147;-74
2023/05/20 09:02:54;;;;;;;9.40;6.90;;;;;;;;;;4974240;28;20337;-75
2023/05/20 09:05:20;;;;;;;7.13;6.45;;;;;;;;;;4975135;28;20117;-76
2023/05/20 09:07:45;;;;;;;7.22;5.93;;;;;;;;;;4975606;28;20122;-75
2023/05/20 09:10:10;;;;;;;8.45;7.25;;;;;;;;;;4975141;28;20034;-77
2023/05/20 09:12:37;;;;;;;7.72;6.57;;;;;;;;;;4974476;28;20410;-76
2023/05/20 09:15:03;;;;;;;9.02;6.97;;;;;;;;;;4974846;28;20037;-75
2023/05/20 09:17:28;;;;;;;9.98;8.38;;;;;;;;;;4974803;28;20034;-76
2023/05/20 09:19:53;;;;;;;10.13;9.02;;;;;;;;;;4975621;28;20579;-75
2023/05/20 09:22:22;;;;;;;12.68;9.52;;;;;;;;;;4973716;28;20101;-74
2023/05/20 09:24:48;;;;;;;;;;;;;;;;;;4977892;28;20156;-75
2023/05/20 09:27:13;;;;;;;13.13;6.67;;;;;;;;;;4972415;28;20012;-76
2023/05/20 09:29:38;;;;;;;8.00;7.20;;;;;;;;;;4976251;28;20994;-77
2023/05/20 09:32:04;;;;;;;7.35;6.20;;;;;;;;;;4975496;28;20175;-74
2023/05/20 09:34:29;;;;;;;8.25;7.45;;;;;;;;;;4974959;28;20030;-75
2023/05/20 09:36:56;;;;;;;10.73;7.07;;;;;;;;;;4976923;28;20026;-75
2023/05/20 09:39:24;;;;;;;10.07;7.60;;;;;;;;;;4974595;28;20402;-76
2023/05/20 09:42:27;;;;;;;9.35;7.10;;;;;;;;;;4974581;28;20065;-75
2023/05/20 09:44:53;;;;;;;8.85;7.95;;;;;;;;;;5075664;28;20075;-75
2023/05/20 09:47:18;;;;;;;18.27;14.27;;;;;;;;;;5072866;28;20032;-74
2023/05/20 09:49:45;;;;;;;11.30;7.20;;;;;;;;;;5073797;28;20120;-75
2023/05/20 09:52:11;;;;;;;7.03;6.43;;;;;;;;;;5073725;28;20078;-75
2023/05/20 09:54:37;;;;;;;7.10;6.40;;;;;;;;;;5072993;28;20115;-74
2023/05/20 09:57:03;;;;;;;7.28;6.05;;;;;;;;;;5072390;28;20114;-75
2023/05/20 09:59:30;;;;;;;9.48;6.20;;;;;;;;;;5075367;28;20047;-75
2023/05/20 10:01:55;;;;;;;7.10;6.43;;;;;;;;;;5072189;28;20102;-76
2023/05/20 10:04:22;;;;;;;7.55;6.57;;;;;;;;;;5071333;28;20032;-75
2023/05/20 10:07:07;;;;;;;8.68;7.05;;;;;;;;;;5061103;28;20500;-75
2023/05/20 10:09:42;;;;;;;8.27;6.90;;;;;;;;;;5068594;28;20565;-76
2023/05/20 10:12:23;;;;;;;8.10;6.38;;;;;;;;;;5069885;28;20032;-75
2023/05/20 10:14:57;;;;;;;8.75;6.32;;;;;;;;;;5054776;28;20386;-76
2023/05/20 10:17:34;;;;;;;8.73;7.53;;;;;;;;;;5058745;28;20123;-75
2023/05/20 10:20:00;;;;;;;7.78;6.68;;;;;;;;;;4950539;28;20038;-75
2023/05/20 10:22:30;;;;;;;6.97;5.93;;;;;;;;;;4954178;28;20030;-76
2023/05/20 10:24:59;;;;;;;6.47;5.88;;;;;;;;;;4956867;28;20038;-76
2023/05/20 10:27:24;;;;;;;;;;;;;;;;;;4957127;28;20484;-74
2023/05/20 10:29:51;;;;;;;8.17;5.93;;;;;;;;;;4962546;28;19910;-74
2023/05/20 10:32:23;;;;;;;9.38;6.80;;;;;;;;;;4970987;28;20499;-75
2023/05/20 10:34:49;;;;;;;6.45;5.85;;;;;;;;;;4970646;28;20030;-75
2023/05/20 10:37:25;;;;;;;6.85;5.70;;;;;;;;;;4961140;28;20033;-74
2023/05/20 10:39:50;;;;;;;8.93;6.57;;;;;;;;;;4960327;28;20034;-75
2023/05/20 10:42:26;;;;;;;6.70;6.03;;;;;;;;;;4963716;28;20116;-74
2023/05/20 10:44:51;;;;;;;8.35;6.03;;;;;;;;;;4961531;28;20153;-75
2023/05/20 10:47:17;;;;;;;6.97;6.43;;;;;;;;;;4962032;28;20431;-75
2023/05/20 10:49:46;;;;;;;7.65;6.82;;;;;;;;;;4961262;28;20055;-74
2023/05/20 10:52:15;;;;;;;9.85;6.38;;;;;;;;;;4968014;28;20515;-75
2023/05/20 10:54:53;;;;;;;7.80;6.65;;;;;;;;;;4958080;28;20035;-75
2023/05/20 10:57:19;;;;;;;6.40;5.80;;;;;;;;;;4956166;28;20030;-77
2023/05/20 10:59:46;;;;;;;8.85;6.15;;;;;;;;;;4957281;28;20038;-75
2023/05/20 11:02:13;;;;;;;6.78;5.72;;;;;;;;;;4954109;28;20516;-74
2023/05/20 11:04:41;;;;;;;6.53;5.78;;;;;;;;;;4973467;28;20032;-76
2023/05/20 11:07:07;;;;;;;5.90;5.28;;;;;;;;;;4953922;28;20049;-76
2023/05/20 11:09:33;;;;;;;5.97;5.20;;;;;;;;;;4961637;28;20026;-74
2023/05/20 11:11:58;;;;;;;10.82;5.43;;;;;;;;;;4956986;28;20030;-75
2023/05/20 11:14:23;;;;;;;6.50;5.28;;;;;;;;;;4956640;28;20058;-76
2023/05/20 11:16:53;;;;;;;12.82;8.07;;;;;;;;;;4959531;28;20157;-76
2023/05/20 11:19:18;;;;;;;9.35;6.28;;;;;;;;;;4960888;28;20027;-76
2023/05/20 11:21:44;;;;;;;7.38;5.63;;;;;;;;;;4949590;28;20465;-74
2023/05/20 11:24:10;;;;;;;5.68;5.18;;;;;;;;;;4943373;28;20050;-74
2023/05/20 11:26:36;;;;;;;11.35;8.95;;;;;;;;;;4957535;28;20041;-75
2023/05/20 11:29:02;;;;;;;7.30;6.30;;;;;;;;;;4956814;28;20043;-76
2023/05/20 11:31:27;;;;;;;6.00;5.20;;;;;;;;;;4947933;28;20026;-75
2023/05/20 11:33:52;;;;;;;7.45;5.80;;;;;;;;;;4955101;28;20030;-77
2023/05/20 11:36:18;;;;;;;8.40;5.38;;;;;;;;;;4958234;28;20023;-75
2023/05/20 11:38:45;;;;;;;7.65;5.57;;;;;;;;;;4951442;28;20445;-75
2023/05/20 11:41:10;;;;;;;9.27;4.93;;;;;;;;;;4956395;28;20468;-77
2023/05/20 11:43:35;;;;;;;5.75;4.90;;;;;;;;;;4955899;28;20046;-74
2023/05/20 11:46:01;;;;;;;10.65;4.70;;;;;;;;;;4956179;28;20442;-74
2023/05/20 11:48:27;;;;;;;5.65;5.03;;;;;;;;;;4957979;28;20852;-73
2023/05/20 11:50:53;;;;;;;9.45;5.10;;;;;;;;;;4958419;28;20030;-73
2023/05/20 11:53:20;;;;;;;6.53;5.03;;;;;;;;;;4966108;28;20027;-73
2023/05/20 11:55:55;;;;;;;5.85;4.65;;;;;;;;;;4951027;28;20018;-76
2023/05/20 11:58:22;;;;;;;5.63;5.13;;;;;;;;;;4952309;28;20031;-76
2023/05/20 12:00:47;;;;;;;5.55;4.97;;;;;;;;;;4960424;28;20110;-77
2023/05/20 12:03:13;;;;;;;5.07;4.68;;;;;;;;;;4948856;28;20494;-75
2023/05/20 12:05:39;;;;;;;6.38;4.50;;;;;;;;;;4956175;28;20027;-79
2023/05/20 12:08:05;;;;;;;11.20;5.55;;;;;;;;;;4968533;28;20034;-75
2023/05/20 12:10:31;;;;;;;14.95;5.03;;;;;;;;;;4971501;28;20042;-74
2023/05/20 12:12:56;;;;;;;10.57;5.28;;;;;;;;;;4971901;28;20349;-77
2023/05/20 12:15:22;;;;;;;7.57;5.85;;;;;;;;;;4971704;28;20079;-75
2023/05/20 12:17:48;;;;;;;12.10;6.70;;;;;;;;;;4971250;28;20106;-75
2023/05/20 12:20:17;;;;;;;8.68;5.40;;;;;;;;;;4972976;28;20494;-75
2023/05/20 12:22:44;;;;;;;5.72;5.22;;;;;;;;;;4971199;28;20026;-74
2023/05/20 12:25:14;;;;;;;9.43;5.60;;;;;;;;;;4971654;28;20062;-73
2023/05/20 12:27:40;;;;;;;7.57;5.60;;;;;;;;;;4970956;28;20031;-74
2023/05/20 12:30:06;;;;;;;7.05;5.40;;;;;;;;;;4971473;28;20049;-74
2023/05/20 12:32:31;;;;;;;6.95;6.00;;;;;;;;;;4971113;28;20441;-76
2023/05/20 12:34:56;;;;;;;10.25;6.43;;;;;;;;;;4971800;28;20022;-76
2023/05/20 12:37:22;;;;;;;7.63;6.40;;;;;;;;;;4975166;28;20026;-75
2023/05/20 12:39:48;;;;;;;9.52;6.13;;;;;;;;;;4970563;28;20161;-75
2023/05/20 12:42:14;;;;;;;18.20;7.22;;;;;;;;;;4957956;28;20054;-74
2023/05/20 12:44:39;;;;;;;7.22;6.53;;;;;;;;;;4973570;28;20084;-74
2023/05/20 12:47:04;;;;;;;11.13;6.57;;;;;;;;;;4972477;28;20133;-75
2023/05/20 12:49:30;;;;;;;9.02;6.93;;;;;;;;;;4963603;28;20054;-75
2023/05/20 12:51:55;;;;;;;8.07;7.03;;;;;;;;;;4974228;28;20041;-75
2023/05/20 12:54:21;;;;;;;9.68;7.30;;;;;;;;;;4975327;28;20445;-74
2023/05/20 12:56:47;;;;;;;8.23;6.47;;;;;;;;;;4976858;28;20114;-74
2023/05/20 12:59:14;;;;;;;9.70;7.20;;;;;;;;;;4977234;28;20391;-74
2023/05/20 13:01:39;;;;;;;8.68;7.22;;;;;;;;;;4974451;28;20034;-76
2023/05/20 13:04:04;;;;;;;10.50;7.25;;;;;;;;;;4973608;28;20460;-75
2023/05/20 13:06:30;;;;;;;9.02;7.00;;;;;;;;;;4975040;28;20073;-77
2023/05/20 13:08:56;;;;;;;10.88;7.40;;;;;;;;;;4976257;28;20361;-76
2023/05/20 13:11:21;;;;;;;8.77;7.15;;;;;;;;;;4974904;28;20042;-76
2023/05/20 13:13:46;;;;;;;10.10;6.53;;;;;;;;;;4976230;28;21044;-75
2023/05/20 13:16:12;;;;;;;8.48;6.53;;;;;;;;;;4975468;28;20027;-74
2023/05/20 13:18:37;;;;;;;10.18;6.30;;;;;;;;;;4973619;28;20458;-77
2023/05/20 13:21:02;;;;;;;9.50;6.40;;;;;;;;;;4975319;28;20026;-75
2023/05/20 13:23:28;;;;;;;15.15;7.85;;;;;;;;;;4975189;28;20036;-75
2023/05/20 13:25:53;;;;;;;11.80;7.13;;;;;;;;;;4973513;28;20026;-75
2023/05/20 13:28:19;;;;;;;8.40;6.57;;;;;;;;;;4973134;28;20103;-73
2023/05/20 13:30:45;;;;;;;14.85;9.35;;;;;;;;;;4976273;28;20014;-74
2023/05/20 13:33:10;;;;;;;11.80;7.10;;;;;;;;;;4973990;28;20453;-77
2023/05/20 13:35:35;;;;;;;13.77;10.68;;;;;;;;;;4971636;28;20034;-77
2023/05/20 13:38:01;;;;;;;9.90;8.30;;;;;;;;;;4976214;28;20449;-73
2023/05/20 13:40:26;;;;;;;8.32;7.10;;;;;;;;;;4976048;28;20033;-74
2023/05/20 13:42:52;;;;;;;10.82;8.40;;;;;;;;;;4975341;28;20050;-75
2023/05/20 13:45:17;;;;;;;17.70;12.43;;;;;;;;;;4972697;28;20037;-75
2023/05/20 13:47:43;;;;;;;11.20;7.93;;;;;;;;;;4974800;28;20026;-76
2023/05/20 13:50:09;;;;;;;11.88;8.35;;;;;;;;;;4991304;28;20465;-74
2023/05/20 13:52:34;;;;;;;13.93;10.55;;;;;;;;;;4973723;28;20117;-75
2023/05/20 13:55:00;;;;;;;10.65;7.88;;;;;;;;;;4974753;28;20023;-75
2023/05/20 13:57:25;;;;;;;7.53;6.80;;;;;;;;;;4973547;28;20118;-77
2023/05/20 13:59:50;;;;;;;9.25;7.40;;;;;;;;;;4974537;28;20049;-74
2023/05/20 14:02:16;;;;;;;10.35;8.23;;;;;;;;;;4974853;28;20037;-75
2023/05/20 14:04:43;;;;;;;8.15;6.47;;;;;;;;;;4972452;28;20030;-76
2023/05/20 14:07:09;;;;;;;8.50;7.07;;;;;;;;;;4972487;28;20034;-74
2023/05/20 14:09:34;;;;;;;9.93;7.60;;;;;;;;;;4975890;28;20349;-73
2023/05/20 14:12:00;;;;;;;8.07;7.25;;;;;;;;;;4976511;28;20038;-75
2023/05/20 14:14:26;;;;;;;10.10;6.82;;;;;;;;;;4962902;28;20035;-76
2023/05/20 14:16:51;;;;;;;10.93;6.93;;;;;;;;;;4966415;28;20042;-72
2023/05/20 14:19:17;;;;;;;7.22;6.53;;;;;;;;;;4974782;28;20512;-73
2023/05/20 14:21:42;;;;;;;8.05;7.25;;;;;;;;;;4963336;28;20035;-74